createdAt,value
2022-08-12T00:00:21.353Z,2.47
2022-08-12T00:03:06.984Z,2.47
2022-08-12T00:06:04.200Z,2.43
2022-08-12T00:08:52.169Z,2.33
2022-08-12T00:11:38.026Z,2.27
2022-08-12T00:14:24.114Z,2.60
2022-08-12T00:17:11.117Z,2.60
2022-08-12T00:19:56.585Z,2.27
2022-08-12T00:22:42.073Z,2.50
2022-08-12T00:26:00.477Z,2.33
2022-08-12T00:28:34.549Z,2.60
2022-08-12T00:31:19.992Z,2.67
2022-08-12T00:34:06.778Z,2.60
2022-08-12T00:36:52.168Z,2.50
2022-08-12T00:39:37.938Z,2.60
2022-08-12T00:42:11.464Z,2.93
2022-08-12T00:44:42.429Z,2.80
2022-08-12T00:47:25.254Z,2.70
2022-08-12T00:49:56.137Z,2.57
2022-08-12T00:52:25.086Z,2.80
2022-08-12T00:55:00.037Z,2.90
2022-08-12T00:57:30.128Z,2.70
2022-08-12T01:00:04.769Z,2.37
2022-08-12T01:02:34.621Z,2.70
2022-08-12T01:05:25.193Z,2.80
2022-08-12T01:08:11.188Z,2.90
2022-08-12T01:10:58.120Z,2.60
2022-08-12T01:13:27.190Z,3.00
2022-08-12T01:15:57.845Z,2.70
2022-08-12T01:18:29.816Z,3.00
2022-08-12T01:21:11.903Z,2.57
2022-08-12T01:24:30.327Z,2.70
2022-08-12T01:26:56.438Z,2.60
2022-08-12T01:29:32.947Z,2.67
2022-08-12T01:32:08.619Z,2.30
2022-08-12T01:34:38.874Z,2.63
2022-08-12T01:37:09.884Z,2.87
2022-08-12T01:40:34.955Z,2.90
2022-08-12T01:42:44.550Z,2.80
2022-08-12T01:45:13.524Z,2.53
2022-08-12T01:47:57.328Z,2.67
2022-08-12T01:50:33.272Z,2.60
2022-08-12T01:53:06.537Z,2.67
2022-08-12T01:55:38.305Z,2.60
2022-08-12T01:58:18.938Z,2.87
2022-08-12T02:00:59.184Z,2.30
2022-08-12T02:04:04.792Z,2.83
2022-08-12T02:07:00.715Z,2.63
2022-08-12T02:10:02.727Z,2.53
2022-08-12T02:12:43.572Z,2.93
2022-08-12T02:15:28.124Z,2.77
2022-08-12T02:18:10.870Z,2.47
2022-08-12T02:20:51.575Z,3.23
2022-08-12T02:23:27.104Z,2.77
2022-08-12T02:25:59.432Z,2.60
2022-08-12T02:28:27.994Z,2.60
2022-08-12T02:31:02.791Z,2.87
2022-08-12T02:33:31.906Z,2.80
2022-08-12T02:36:02.407Z,2.73
2022-08-12T02:38:31.283Z,2.70
2022-08-12T02:41:00.743Z,2.53
2022-08-12T02:43:35.194Z,2.90
2022-08-12T02:46:10.454Z,3.17
2022-08-12T02:48:49.966Z,2.80
2022-08-12T02:51:20.484Z,2.80
2022-08-12T02:54:05.624Z,2.67
2022-08-12T02:56:40.506Z,2.73
2022-08-12T02:59:10.553Z,2.70
2022-08-12T03:01:48.157Z,2.90
2022-08-12T03:04:24.471Z,2.60
2022-08-12T03:07:00.654Z,2.50
2022-08-12T03:10:03.690Z,2.80
2022-08-12T03:12:24.535Z,3.10
2022-08-12T03:14:54.215Z,2.87
2022-08-12T03:17:30.273Z,3.00
2022-08-12T03:20:10.202Z,3.10
2022-08-12T03:22:40.594Z,3.70
2022-08-12T03:25:16.143Z,3.03
2022-08-12T03:27:49.800Z,3.50
2022-08-12T03:30:19.561Z,3.37
2022-08-12T03:32:51.781Z,3.00
2022-08-12T03:35:40.560Z,3.20
2022-08-12T03:38:12.355Z,3.10
2022-08-12T03:41:10.149Z,3.50
2022-08-12T03:44:15.017Z,3.70
2022-08-12T03:47:04.181Z,3.20
2022-08-12T03:49:51.286Z,3.23
2022-08-12T03:52:36.904Z,3.80
2022-08-12T03:55:23.369Z,3.50
2022-08-12T03:58:08.869Z,4.20
2022-08-12T04:00:37.279Z,3.30
2022-08-12T04:03:25.795Z,3.20
2022-08-12T04:05:56.775Z,3.70
2022-08-12T04:08:27.034Z,3.47
2022-08-12T04:11:21.480Z,2.97
2022-08-12T04:13:50.993Z,3.20
2022-08-12T04:16:20.225Z,3.30
2022-08-12T04:18:48.561Z,3.40
2022-08-12T04:21:17.876Z,3.07
2022-08-12T04:23:48.568Z,3.20
2022-08-12T04:26:17.162Z,4.00
2022-08-12T04:28:45.976Z,3.50
2022-08-12T04:31:14.446Z,3.70
2022-08-12T04:33:43.872Z,3.47
2022-08-12T04:36:11.865Z,3.83
2022-08-12T04:38:41.779Z,3.70
2022-08-12T04:41:11.070Z,3.63
2022-08-12T04:44:00.422Z,4.00
2022-08-12T04:46:33.526Z,4.57
2022-08-12T04:49:03.295Z,3.50
2022-08-12T04:51:31.788Z,4.20
2022-08-12T04:54:02.291Z,3.57
2022-08-12T04:56:30.547Z,4.00
2022-08-12T04:59:03.995Z,4.10
2022-08-12T05:01:32.786Z,4.10
2022-08-12T05:04:02.781Z,4.10
2022-08-12T05:06:30.843Z,3.80
2022-08-12T05:09:00.843Z,4.57
2022-08-12T05:11:29.359Z,4.00
2022-08-12T05:14:00.346Z,3.43
2022-08-12T05:16:30.830Z,4.00
2022-08-12T05:19:00.924Z,4.43
2022-08-12T05:21:28.919Z,4.07
2022-08-12T05:23:57.011Z,3.80
2022-08-12T05:26:26.894Z,3.87
2022-08-12T05:28:55.068Z,3.63
2022-08-12T05:31:40.387Z,3.47
2022-08-12T05:34:14.721Z,3.20
2022-08-12T05:36:43.885Z,3.83
2022-08-12T05:39:12.075Z,3.60
2022-08-12T05:41:41.576Z,3.63
2022-08-12T05:44:12.717Z,3.90
2022-08-12T05:46:41.153Z,3.30
2022-08-12T05:49:10.170Z,3.50
2022-08-12T05:51:40.239Z,3.30
2022-08-12T05:54:10.879Z,3.53
2022-08-12T05:56:39.357Z,3.33
2022-08-12T05:59:11.273Z,3.10
2022-08-12T06:02:10.726Z,3.70
2022-08-12T06:04:28.455Z,3.27
2022-08-12T06:06:56.610Z,3.00
2022-08-12T06:09:26.431Z,3.27
2022-08-12T06:12:05.558Z,3.17
2022-08-12T06:14:39.175Z,3.13
2022-08-12T06:17:08.739Z,3.13
2022-08-12T06:20:27.811Z,2.90
2022-08-12T06:22:25.940Z,2.73
2022-08-12T06:24:53.944Z,2.90
2022-08-12T06:27:22.023Z,2.63
2022-08-12T06:30:07.956Z,2.67
2022-08-12T06:32:47.547Z,2.80
2022-08-12T06:35:47.597Z,2.60
2022-08-12T06:38:17.056Z,3.07
2022-08-12T06:41:03.335Z,2.73
2022-08-12T06:44:06.198Z,3.20
2022-08-12T06:46:22.046Z,2.93
2022-08-12T06:48:52.074Z,3.03
2022-08-12T06:51:20.751Z,3.50
2022-08-12T06:53:48.816Z,2.80
2022-08-12T06:56:17.435Z,3.00
2022-08-12T06:58:45.439Z,2.93
2022-08-12T07:01:13.634Z,3.37
2022-08-12T07:03:43.100Z,2.50
2022-08-12T07:06:13.697Z,2.85
2022-08-12T07:08:43.968Z,2.80
2022-08-12T07:11:15.338Z,2.85
2022-08-12T07:14:11.830Z,2.70
2022-08-12T07:16:47.367Z,2.80
2022-08-12T07:19:17.067Z,3.08
2022-08-12T07:21:59.947Z,2.53
2022-08-12T07:24:30.903Z,2.80
2022-08-12T07:26:59.174Z,2.83
2022-08-12T07:29:58.052Z,2.50
2022-08-12T07:32:16.451Z,2.55
2022-08-12T07:34:47.396Z,2.55
2022-08-12T07:37:17.684Z,2.47
2022-08-12T07:39:51.236Z,2.35
2022-08-12T07:42:28.503Z,2.50
2022-08-12T07:44:56.660Z,2.38
2022-08-12T07:47:25.131Z,1.98
2022-08-12T07:50:04.695Z,2.13
2022-08-12T07:52:34.804Z,2.08
2022-08-12T07:55:03.462Z,1.95
2022-08-12T07:57:32.850Z,2.30
2022-08-12T08:00:05.209Z,2.03
2022-08-12T08:02:36.217Z,1.80
2022-08-12T08:05:06.350Z,2.33
2022-08-12T08:07:34.949Z,1.83
2022-08-12T08:10:06.789Z,1.88
2022-08-12T08:12:52.373Z,1.73
2022-08-12T08:15:20.993Z,1.85
2022-08-12T08:18:02.589Z,2.03
2022-08-12T08:20:35.592Z,1.80
2022-08-12T08:23:07.925Z,1.88
2022-08-12T08:25:38.931Z,2.00
2022-08-12T08:28:12.589Z,1.83
2022-08-12T08:30:44.059Z,2.13
2022-08-12T08:33:24.524Z,1.80
2022-08-12T08:36:03.137Z,1.90
2022-08-12T08:38:32.827Z,2.00
2022-08-12T08:42:17.638Z,1.70
2022-08-12T08:44:11.081Z,1.80
2022-08-12T08:46:39.755Z,1.88
2022-08-12T08:49:08.163Z,1.73
2022-08-12T08:51:38.977Z,1.85
2022-08-12T08:54:08.672Z,1.70
2022-08-12T08:56:43.921Z,1.52
2022-08-12T08:59:13.248Z,1.60
2022-08-12T09:01:44.223Z,1.73
2022-08-12T09:07:17.948Z,1.80
2022-08-12T09:10:02.272Z,2.10
2022-08-12T09:15:38.861Z,1.80
2022-08-12T09:18:11.112Z,1.90
2022-08-12T09:20:42.435Z,2.00
2022-08-12T09:24:00.954Z,1.92
2022-08-12T09:26:03.996Z,2.05
2022-08-12T09:28:53.063Z,2.00
2022-08-12T09:32:04.270Z,1.60
2022-08-12T09:34:27.872Z,1.80
2022-08-12T09:37:02.324Z,2.10
2022-08-12T09:39:44.382Z,1.80
2022-08-12T09:43:11.792Z,2.03
2022-08-12T09:46:11.532Z,1.90
2022-08-12T09:48:26.734Z,1.70
2022-08-12T09:51:03.476Z,1.63
2022-08-12T09:53:36.287Z,1.60
2022-08-12T09:57:00.177Z,1.63
2022-08-12T09:59:01.645Z,1.60
2022-08-12T10:01:35.677Z,1.65
2022-08-12T10:04:19.113Z,1.67
2022-08-12T10:06:54.326Z,1.75
2022-08-12T10:09:28.605Z,1.90
2022-08-12T10:12:32.901Z,1.42
2022-08-12T10:15:01.832Z,1.50
2022-08-12T10:17:30.124Z,1.60
2022-08-12T10:19:59.349Z,2.00
2022-08-12T10:22:39.645Z,1.45
2022-08-12T10:26:35.515Z,1.52
2022-08-12T10:28:34.132Z,1.88
2022-08-12T10:31:05.037Z,1.55
2022-08-12T10:33:55.174Z,1.60
2022-08-12T10:36:40.174Z,1.60
2022-08-12T10:40:01.979Z,1.83
2022-08-12T10:42:29.028Z,1.60
2022-08-12T10:45:02.121Z,1.75
2022-08-12T10:48:15.855Z,1.90
2022-08-12T10:50:33.662Z,1.92
2022-08-12T10:53:10.515Z,1.52
2022-08-12T10:55:50.043Z,1.77
2022-08-12T10:58:28.060Z,1.67
2022-08-12T11:01:25.944Z,1.67
2022-08-12T11:04:27.681Z,1.42
2022-08-12T11:07:07.084Z,1.80
2022-08-12T11:09:55.854Z,1.75
2022-08-12T11:12:58.169Z,1.80
2022-08-12T11:15:18.977Z,1.75
2022-08-12T11:17:52.758Z,1.83
2022-08-12T11:20:24.029Z,1.63
2022-08-12T11:22:59.604Z,2.00
2022-08-12T11:25:56.141Z,1.60
2022-08-12T11:28:17.171Z,1.88
2022-08-12T11:31:01.772Z,1.75
2022-08-12T11:34:05.327Z,1.70
2022-08-12T11:36:21.811Z,1.70
2022-08-12T11:38:51.214Z,1.70
2022-08-12T11:41:28.135Z,2.00
2022-08-12T11:44:30.778Z,1.73
2022-08-12T11:46:51.147Z,1.90
2022-08-12T11:49:31.136Z,1.58
2022-08-12T11:52:01.471Z,1.90
2022-08-12T11:54:30.220Z,1.85
2022-08-12T11:56:59.792Z,1.60
2022-08-12T12:02:20.677Z,1.60
2022-08-12T12:04:52.571Z,1.85
2022-08-12T12:07:33.964Z,1.98
2022-08-12T12:10:13.213Z,1.63
2022-08-12T12:12:49.395Z,1.65
2022-08-12T12:15:24.808Z,1.73
2022-08-12T12:17:55.792Z,1.90
2022-08-12T12:20:26.063Z,2.00
2022-08-12T12:22:58.447Z,2.03
2022-08-12T12:25:59.338Z,2.28
2022-08-12T12:28:36.662Z,1.90
2022-08-12T12:31:04.530Z,1.77
2022-08-12T12:33:46.243Z,1.77
2022-08-12T12:36:30.241Z,2.08
2022-08-12T12:39:00.148Z,1.88
2022-08-12T12:42:43.039Z,2.00
2022-08-12T12:44:25.717Z,1.52
2022-08-12T12:46:58.587Z,1.60
2022-08-12T12:49:29.008Z,1.63
2022-08-12T12:52:18.462Z,1.88
2022-08-12T12:54:52.807Z,2.10
2022-08-12T12:57:36.132Z,2.10
2022-08-12T13:00:17.655Z,2.10
2022-08-12T13:02:53.569Z,2.00
2022-08-12T13:05:27.871Z,1.92
2022-08-12T13:08:01.349Z,2.00
2022-08-12T13:10:36.889Z,2.40
2022-08-12T13:14:07.524Z,2.20
2022-08-12T13:15:59.150Z,1.90
2022-08-12T13:18:31.574Z,1.90
2022-08-12T13:20:59.887Z,1.92
2022-08-12T13:23:36.027Z,1.75
2022-08-12T13:26:07.724Z,1.70
2022-08-12T13:28:45.612Z,2.25
2022-08-12T13:31:22.251Z,2.20
2022-08-12T13:34:33.192Z,2.17
2022-08-12T13:36:42.211Z,2.15
2022-08-12T13:39:11.968Z,2.15
2022-08-12T13:41:40.021Z,1.90
2022-08-12T13:44:11.762Z,2.00
2022-08-12T13:46:42.174Z,2.08
2022-08-12T13:49:17.711Z,1.83
2022-08-12T13:52:01.689Z,1.77
2022-08-12T13:54:31.024Z,1.90
2022-08-12T13:56:59.080Z,2.10
2022-08-12T13:59:28.592Z,1.92
2022-08-12T14:02:17.593Z,2.13
2022-08-12T14:04:45.694Z,2.05
2022-08-12T14:07:26.093Z,1.83
2022-08-12T14:10:16.562Z,1.80
2022-08-12T14:12:54.430Z,1.80
2022-08-12T14:15:36.764Z,2.05
2022-08-12T14:18:15.552Z,1.90
2022-08-12T14:20:47.803Z,1.92
2022-08-12T14:24:05.685Z,2.03
2022-08-12T14:26:11.821Z,2.00
2022-08-12T14:28:45.187Z,1.70
2022-08-12T14:31:31.467Z,2.30
2022-08-12T14:34:00.330Z,1.77
2022-08-12T14:36:33.253Z,2.35
2022-08-12T14:39:06.082Z,2.38
2022-08-12T14:41:48.392Z,2.10
2022-08-12T14:44:59.555Z,2.20
2022-08-12T14:47:13.576Z,2.15
2022-08-12T14:50:37.106Z,2.10
2022-08-12T14:53:50.691Z,1.85
2022-08-12T14:58:09.843Z,2.20
2022-08-12T15:00:56.242Z,2.80
2022-08-12T15:03:46.694Z,2.33
2022-08-12T15:06:39.798Z,2.30
2022-08-12T15:09:12.212Z,2.10
2022-08-12T15:11:48.964Z,2.00
2022-08-12T15:14:27.552Z,2.20
2022-08-12T15:17:00.146Z,2.58
2022-08-12T15:20:14.344Z,2.00
2022-08-12T15:22:39.416Z,2.13
2022-08-12T15:25:07.372Z,2.25
2022-08-12T15:28:04.089Z,2.22
2022-08-12T15:30:32.518Z,2.17
2022-08-12T15:33:12.243Z,2.50
2022-08-12T15:35:52.018Z,2.53
2022-08-12T15:38:25.096Z,2.33
2022-08-12T15:40:54.435Z,2.85
2022-08-12T15:43:51.355Z,2.22
2022-08-12T15:46:15.442Z,2.55
2022-08-12T15:48:46.991Z,2.22
2022-08-12T15:51:59.228Z,2.60
2022-08-12T15:54:35.041Z,2.85
2022-08-12T15:57:08.403Z,2.53
2022-08-12T16:00:00.231Z,2.25
2022-08-12T16:02:29.617Z,2.45
2022-08-12T16:04:58.474Z,2.80
2022-08-12T16:07:32.639Z,2.53
2022-08-12T16:10:08.284Z,2.45
2022-08-12T16:12:43.437Z,2.60
2022-08-12T16:15:13.199Z,2.70
2022-08-12T16:18:19.374Z,3.00
2022-08-12T16:20:34.923Z,3.00
2022-08-12T16:23:36.217Z,2.90
2022-08-12T16:26:02.949Z,3.10
2022-08-12T16:28:34.826Z,3.03
2022-08-12T16:31:05.682Z,3.38
2022-08-12T16:33:58.923Z,3.53
2022-08-12T16:36:28.588Z,3.38
2022-08-12T16:38:56.621Z,3.35
2022-08-12T16:41:25.637Z,3.13
2022-08-12T16:43:56.441Z,3.33
2022-08-12T16:46:33.609Z,3.08
2022-08-12T16:49:09.350Z,3.17
2022-08-12T16:51:46.371Z,3.15
2022-08-12T16:54:16.999Z,2.75
2022-08-12T16:56:50.834Z,3.33
2022-08-12T16:59:30.790Z,2.83
2022-08-12T17:02:31.546Z,2.85
2022-08-12T17:05:05.555Z,2.70
2022-08-12T17:07:38.270Z,2.28
2022-08-12T17:10:13.499Z,2.65
2022-08-12T17:12:46.315Z,2.50
2022-08-12T17:15:50.558Z,2.85
2022-08-12T17:18:43.943Z,2.90
2022-08-12T17:20:57.691Z,2.53
2022-08-12T17:23:47.925Z,2.92
2022-08-12T17:26:18.576Z,2.63
2022-08-12T17:28:53.301Z,2.80
2022-08-12T17:32:00.556Z,2.97
2022-08-12T17:34:30.498Z,2.83
2022-08-12T17:37:05.532Z,3.00
2022-08-12T17:40:12.314Z,3.30
2022-08-12T17:42:32.291Z,2.97
2022-08-12T17:45:17.448Z,3.10
2022-08-12T17:48:00.967Z,3.22
2022-08-12T17:50:33.435Z,3.30
2022-08-12T17:53:03.715Z,3.10
2022-08-12T17:55:40.805Z,2.80
2022-08-12T17:58:15.870Z,3.20
2022-08-12T18:00:45.506Z,3.30
2022-08-12T18:04:04.263Z,2.90
2022-08-12T18:06:08.645Z,3.15
2022-08-12T18:08:54.221Z,3.30
2022-08-12T18:12:06.645Z,3.30
2022-08-12T18:14:30.080Z,2.97
2022-08-12T18:17:00.815Z,3.30
2022-08-12T18:19:34.182Z,3.47
2022-08-12T18:22:22.134Z,3.22
2022-08-12T18:25:03.680Z,3.20
2022-08-12T18:27:44.164Z,3.30
2022-08-12T18:30:20.625Z,3.67
2022-08-12T18:33:04.032Z,3.47
2022-08-12T18:35:46.366Z,3.60
2022-08-12T18:38:17.936Z,3.17
2022-08-12T18:41:10.192Z,3.33
2022-08-12T18:43:59.167Z,2.88
2022-08-12T18:46:42.747Z,3.20
2022-08-12T18:49:18.762Z,3.08
2022-08-12T18:51:55.291Z,3.40
2022-08-12T18:54:32.177Z,3.80
2022-08-12T18:57:07.092Z,3.67
2022-08-12T19:00:02.024Z,4.40
2022-08-12T19:02:39.845Z,4.10
2022-08-12T19:05:10.800Z,3.58
2022-08-12T19:07:57.998Z,3.85
2022-08-12T19:10:31.445Z,4.38
2022-08-12T19:13:23.129Z,5.00
2022-08-12T19:15:53.484Z,5.38
2022-08-12T19:18:24.352Z,4.90
2022-08-12T19:20:52.409Z,5.07
2022-08-12T19:23:22.348Z,5.03
2022-08-12T19:26:01.242Z,4.07
2022-08-12T19:28:34.647Z,3.58
2022-08-12T19:31:55.960Z,3.75
2022-08-12T19:37:18.033Z,2.88
2022-08-12T19:40:09.366Z,3.33
2022-08-12T19:42:42.809Z,3.10
2022-08-12T19:45:15.695Z,3.38
2022-08-12T19:47:46.056Z,3.15
2022-08-12T19:50:19.609Z,3.10
2022-08-12T19:52:50.915Z,3.53
2022-08-12T19:55:23.532Z,3.33
2022-08-12T19:58:02.507Z,4.10
2022-08-12T20:00:34.844Z,3.63
2022-08-12T20:03:05.274Z,3.10
2022-08-12T20:06:05.453Z,2.95
2022-08-12T20:08:34.047Z,3.00
2022-08-12T20:12:15.042Z,2.95
2022-08-12T20:14:00.545Z,3.08
2022-08-12T20:16:54.527Z,2.70
2022-08-12T20:19:52.377Z,2.50
2022-08-12T20:22:23.486Z,2.53
2022-08-12T20:24:55.122Z,2.60
2022-08-12T20:27:28.590Z,2.22
2022-08-12T20:30:15.216Z,2.20
2022-08-12T20:32:55.094Z,2.67
2022-08-12T20:35:24.997Z,2.08
2022-08-12T20:38:26.450Z,2.35
2022-08-12T20:40:55.304Z,2.22
2022-08-12T20:43:24.249Z,2.17
2022-08-12T20:45:58.141Z,2.42
2022-08-12T20:48:28.571Z,2.25
2022-08-12T20:50:57.920Z,1.90
2022-08-12T20:53:54.311Z,1.88
2022-08-12T20:56:31.413Z,2.08
2022-08-12T20:59:01.063Z,2.33
2022-08-12T21:01:46.576Z,1.77
2022-08-12T21:04:36.299Z,1.88
2022-08-12T21:07:09.371Z,2.03
2022-08-12T21:09:41.560Z,1.92
2022-08-12T21:12:27.346Z,2.22
2022-08-12T21:15:22.811Z,2.15
2022-08-12T21:18:08.109Z,2.00
2022-08-12T21:20:38.535Z,2.10
2022-08-12T21:23:07.550Z,2.22
2022-08-12T21:25:44.500Z,2.13
2022-08-12T21:28:13.763Z,2.30
2022-08-12T21:31:11.780Z,1.80
2022-08-12T21:33:31.805Z,2.30
2022-08-12T21:36:02.713Z,2.22
2022-08-12T21:38:34.419Z,2.08
2022-08-12T21:41:06.792Z,2.10
2022-08-12T21:43:40.319Z,2.40
2022-08-12T21:46:33.715Z,2.20
2022-08-12T21:49:05.308Z,2.40
2022-08-12T21:51:49.812Z,2.50
2022-08-12T21:54:21.681Z,2.10
2022-08-12T21:56:53.636Z,2.35
2022-08-12T21:59:22.852Z,2.15
2022-08-12T22:01:51.417Z,2.60
2022-08-12T22:04:37.449Z,2.67
2022-08-12T22:07:07.865Z,2.55
2022-08-12T22:09:43.466Z,2.40
2022-08-12T22:12:29.684Z,2.60
2022-08-12T22:14:57.687Z,2.38
2022-08-12T22:17:49.606Z,2.40
2022-08-12T22:20:21.890Z,2.58
2022-08-12T22:22:56.998Z,2.28
2022-08-12T22:25:28.681Z,2.40
2022-08-12T22:28:14.981Z,2.38
2022-08-12T22:31:00.973Z,3.00
2022-08-12T22:33:29.025Z,2.35
2022-08-12T22:36:00.075Z,2.35
2022-08-12T22:38:30.425Z,2.10
2022-08-12T22:41:00.754Z,2.03
2022-08-12T22:44:00.148Z,2.30
2022-08-12T22:46:51.976Z,2.50
2022-08-12T22:49:36.256Z,2.20
2022-08-12T22:52:12.097Z,2.40
2022-08-12T22:54:46.312Z,2.47
2022-08-12T22:57:49.546Z,2.83
2022-08-12T23:00:23.899Z,2.30
2022-08-12T23:02:58.388Z,2.67
2022-08-12T23:05:36.997Z,2.30
2022-08-12T23:08:17.831Z,2.20
2022-08-12T23:10:47.440Z,2.38
2022-08-12T23:13:43.854Z,2.33
2022-08-12T23:16:28.041Z,2.30
2022-08-12T23:19:01.584Z,2.20
2022-08-12T23:21:40.305Z,2.70
2022-08-12T23:24:26.305Z,2.63
2022-08-12T23:27:13.580Z,2.45
2022-08-12T23:29:59.363Z,2.60
2022-08-12T23:32:54.076Z,2.30
2022-08-12T23:35:22.496Z,2.75
2022-08-12T23:37:53.692Z,2.60
2022-08-12T23:40:24.654Z,2.60
2022-08-12T23:42:55.247Z,2.40
2022-08-12T23:45:31.915Z,2.70
2022-08-12T23:48:03.120Z,2.47
2022-08-12T23:50:33.748Z,2.30
2022-08-12T23:53:05.605Z,2.78
2022-08-12T23:55:38.232Z,2.45
2022-08-12T23:58:18.217Z,2.50
